createdAt,value
2019-03-28T00:00:08.639Z,99022.48
2019-03-28T00:02:37.059Z,99022.91
2019-03-28T00:05:06.354Z,99017.75
2019-03-28T00:07:34.810Z,99016.03
2019-03-28T00:10:03.299Z,99010.89
2019-03-28T00:12:31.713Z,99012.63
2019-03-28T00:15:00.177Z,99007.03
2019-03-28T00:17:28.670Z,99016.84
2019-03-28T00:19:57.054Z,99010.41
2019-03-28T00:22:32.989Z,99008.28
2019-03-28T00:25:09.162Z,99015.98
2019-03-28T00:27:37.531Z,99015.53
2019-03-28T00:30:07.238Z,99015.11
2019-03-28T00:32:35.667Z,99019.37
2019-03-28T00:35:06.215Z,99018.09
2019-03-28T00:37:35.238Z,99012.12
2019-03-28T00:40:04.796Z,99015.98
2019-03-28T00:42:33.585Z,99017.72
2019-03-28T00:45:02.028Z,99012.98
2019-03-28T00:47:30.406Z,99012.14
2019-03-28T00:49:58.804Z,99013.43
2019-03-28T00:52:27.190Z,99011.70
2019-03-28T00:54:55.623Z,99008.30
2019-03-28T00:57:24.007Z,99010.87
2019-03-28T00:59:52.424Z,99003.15
2019-03-28T01:02:21.228Z,99009.13
2019-03-28T01:04:49.729Z,99008.70
2019-03-28T01:07:18.140Z,99007.41
2019-03-28T01:09:46.521Z,99009.53
2019-03-28T01:12:14.955Z,99011.65
2019-03-28T01:14:43.373Z,99014.22
2019-03-28T01:17:11.792Z,99001.36
2019-03-28T01:19:40.228Z,99014.23
2019-03-28T01:22:08.677Z,99012.50
2019-03-28T01:24:37.057Z,99013.34
2019-03-28T01:27:05.535Z,99014.64
2019-03-28T01:29:33.942Z,99012.52
2019-03-28T01:32:02.399Z,99007.80
2019-03-28T01:34:30.936Z,99009.08
2019-03-28T01:36:59.378Z,99020.23
2019-03-28T01:39:27.792Z,99016.36
2019-03-28T01:41:56.186Z,99016.30
2019-03-28T01:44:24.606Z,99014.52
2019-03-28T01:46:53.122Z,99008.52
2019-03-28T01:49:21.546Z,99011.53
2019-03-28T01:51:49.943Z,99014.48
2019-03-28T01:54:18.361Z,99007.64
2019-03-28T01:56:46.755Z,99005.52
2019-03-28T01:59:15.142Z,99009.78
2019-03-28T02:01:43.592Z,99001.66
2019-03-28T02:04:12.002Z,99005.91
2019-03-28T02:06:40.386Z,99008.92
2019-03-28T02:09:08.778Z,98999.91
2019-03-28T02:11:37.154Z,99005.86
2019-03-28T02:14:05.622Z,99001.59
2019-03-28T02:16:34.076Z,99005.84
2019-03-28T02:19:03.066Z,99006.27
2019-03-28T02:21:31.477Z,99005.44
2019-03-28T02:23:59.904Z,98998.16
2019-03-28T02:26:28.339Z,98997.77
2019-03-28T02:28:56.747Z,99002.91
2019-03-28T02:31:25.134Z,99005.91
2019-03-28T02:33:53.596Z,99008.06
2019-03-28T02:36:22.019Z,99006.34
2019-03-28T02:38:50.454Z,99005.47
2019-03-28T02:41:18.880Z,99009.73
2019-03-28T02:43:47.245Z,99006.71
2019-03-28T02:46:15.667Z,99011.38
2019-03-28T02:48:44.052Z,99005.39
2019-03-28T02:51:12.455Z,99006.25
2019-03-28T02:53:40.895Z,99009.67
2019-03-28T02:56:09.282Z,99007.97
2019-03-28T02:58:37.689Z,99011.82
2019-03-28T03:01:06.087Z,99007.50
2019-03-28T03:03:34.601Z,99010.48
2019-03-28T03:06:03.015Z,98988.95
2019-03-28T03:08:31.428Z,99003.55
2019-03-28T03:10:59.791Z,99005.73
2019-03-28T03:13:28.197Z,99012.16
2019-03-28T03:15:56.965Z,99009.59
2019-03-28T03:18:25.621Z,99007.87
2019-03-28T03:20:54.013Z,99003.15
2019-03-28T03:23:22.398Z,99008.69
2019-03-28T03:25:50.852Z,99006.11
2019-03-28T03:28:19.305Z,99009.11
2019-03-28T03:30:47.722Z,99004.83
2019-03-28T03:33:16.154Z,99000.58
2019-03-28T03:35:44.621Z,99000.13
2019-03-28T03:38:13.041Z,99009.55
2019-03-28T03:40:41.464Z,99003.97
2019-03-28T03:43:09.905Z,99006.55
2019-03-28T03:45:38.421Z,98995.45
2019-03-28T03:48:06.854Z,99004.02
2019-03-28T03:50:35.258Z,99008.28
2019-03-28T03:53:03.918Z,99005.30
2019-03-28T03:55:32.324Z,99008.73
2019-03-28T03:58:14.266Z,99011.73
2019-03-28T04:00:32.408Z,99010.44
2019-03-28T04:03:02.946Z,99015.52
2019-03-28T04:05:31.784Z,99015.48
2019-03-28T04:08:00.415Z,99018.92
2019-03-28T04:10:28.847Z,99003.42
2019-03-28T04:12:57.258Z,99018.89
2019-03-28T04:15:25.680Z,99023.14
2019-03-28T04:17:54.118Z,99015.86
2019-03-28T04:20:22.502Z,99024.06
2019-03-28T04:22:51.057Z,99024.92
2019-03-28T04:25:19.490Z,99024.47
2019-03-28T04:27:47.918Z,99027.91
2019-03-28T04:30:16.326Z,99020.20
2019-03-28T04:32:44.716Z,99021.48
2019-03-28T04:35:13.128Z,99019.80
2019-03-28T04:37:41.540Z,99022.35
2019-03-28T04:40:10.473Z,99024.06
2019-03-28T04:42:38.883Z,99024.92
2019-03-28T04:45:07.743Z,99030.92
2019-03-28T04:47:36.372Z,99031.77
2019-03-28T04:50:06.198Z,99030.09
2019-03-28T04:52:34.621Z,99034.35
2019-03-28T04:55:03.043Z,99032.23
2019-03-28T04:57:32.392Z,99031.75
2019-03-28T05:00:00.798Z,99038.56
2019-03-28T05:02:29.560Z,99037.71
2019-03-28T05:04:57.944Z,99037.73
2019-03-28T05:07:26.350Z,99036.86
2019-03-28T05:09:54.739Z,99042.00
2019-03-28T05:12:23.135Z,99042.41
2019-03-28T05:14:52.430Z,99042.38
2019-03-28T05:17:20.812Z,99039.43
2019-03-28T05:19:49.207Z,99042.41
2019-03-28T05:22:17.586Z,99041.52
2019-03-28T05:24:46.001Z,99041.05
2019-03-28T05:27:16.599Z,99036.83
2019-03-28T05:29:44.559Z,99043.31
2019-03-28T05:32:12.980Z,99038.17
2019-03-28T05:34:41.369Z,99040.35
2019-03-28T05:37:10.405Z,99040.80
2019-03-28T05:39:38.837Z,99040.41
2019-03-28T05:42:07.243Z,99040.00
2019-03-28T05:44:35.623Z,99037.90
2019-03-28T05:47:04.037Z,99036.61
2019-03-28T05:49:32.456Z,99038.77
2019-03-28T05:52:00.894Z,99043.92
2019-03-28T05:54:29.298Z,99040.94
2019-03-28T05:56:57.727Z,99041.78
2019-03-28T05:59:26.110Z,99048.25
2019-03-28T06:01:54.543Z,99046.57
2019-03-28T06:04:22.983Z,99051.28
2019-03-28T06:06:51.521Z,99055.59
2019-03-28T06:09:19.921Z,99056.02
2019-03-28T06:11:48.335Z,99058.59
2019-03-28T06:14:16.718Z,99058.59
2019-03-28T06:16:45.109Z,99056.91
2019-03-28T06:19:13.492Z,99059.95
2019-03-28T06:21:41.895Z,99065.17
2019-03-28T06:24:10.293Z,99066.04
2019-03-28T06:26:38.704Z,99063.03
2019-03-28T06:29:08.560Z,99063.05
2019-03-28T06:31:37.198Z,99070.80
2019-03-28T06:34:05.616Z,99068.34
2019-03-28T06:36:34.044Z,99059.87
2019-03-28T06:39:02.838Z,99070.59
2019-03-28T06:41:31.255Z,99073.60
2019-03-28T06:43:59.685Z,99073.60
2019-03-28T06:46:28.073Z,99077.86
2019-03-28T06:48:56.450Z,99074.87
2019-03-28T06:51:24.908Z,99068.03
2019-03-28T06:53:53.288Z,99069.36
2019-03-28T06:56:21.704Z,99077.53
2019-03-28T06:58:50.090Z,99073.73
2019-03-28T07:01:18.500Z,99078.91
2019-03-28T07:03:47.505Z,99072.08
2019-03-28T07:06:15.975Z,99072.12
2019-03-28T07:08:44.375Z,99069.56
2019-03-28T07:11:12.816Z,99066.55
2019-03-28T07:13:41.247Z,99063.16
2019-03-28T07:16:09.657Z,99067.03
2019-03-28T07:18:38.051Z,99068.75
2019-03-28T07:21:06.529Z,99074.33
2019-03-28T07:23:34.901Z,99069.20
2019-03-28T07:26:03.335Z,99072.64
2019-03-28T07:28:31.774Z,99075.23
2019-03-28T07:31:00.205Z,99076.96
2019-03-28T07:33:28.632Z,99069.65
2019-03-28T07:35:57.011Z,99071.39
2019-03-28T07:38:25.447Z,99069.68
2019-03-28T07:40:53.861Z,99074.39
2019-03-28T07:43:25.049Z,99071.83
2019-03-28T07:45:53.311Z,99071.39
2019-03-28T07:48:21.762Z,99073.55
2019-03-28T07:50:50.206Z,99073.55
2019-03-28T07:53:20.003Z,99067.96
2019-03-28T07:55:48.825Z,99064.54
2019-03-28T07:58:17.215Z,99065.39
2019-03-28T08:00:45.585Z,99062.81
2019-03-28T08:03:13.982Z,99064.11
2019-03-28T08:05:42.416Z,99065.39
2019-03-28T08:08:10.829Z,99063.66
2019-03-28T08:10:39.305Z,99072.69
2019-03-28T08:13:07.693Z,99066.64
2019-03-28T08:15:36.112Z,99062.76
2019-03-28T08:18:04.567Z,99063.59
2019-03-28T08:20:33.406Z,99042.95
2019-03-28T08:23:01.761Z,99061.45
2019-03-28T08:25:30.144Z,99076.48
2019-03-28T08:27:58.526Z,99074.75
2019-03-28T08:30:37.418Z,99074.33
2019-03-28T08:33:06.777Z,99073.44
2019-03-28T08:35:37.008Z,99069.53
2019-03-28T08:38:09.735Z,99063.44
2019-03-28T08:40:39.877Z,99055.25
2019-03-28T08:43:08.473Z,99062.08
2019-03-28T08:45:36.898Z,99066.34
2019-03-28T08:48:05.382Z,99067.63
2019-03-28T08:50:33.844Z,99062.89
2019-03-28T08:53:02.222Z,99062.48
2019-03-28T08:55:30.637Z,99064.61
2019-03-28T08:57:59.026Z,99061.19
2019-03-28T09:00:35.217Z,99056.85
2019-03-28T09:02:57.606Z,99061.08
2019-03-28T09:05:25.995Z,99065.80
2019-03-28T09:07:54.372Z,99062.22
2019-03-28T09:10:22.751Z,99060.47
2019-03-28T09:12:51.150Z,99063.43
2019-03-28T09:15:19.578Z,99056.45
2019-03-28T09:17:47.985Z,99051.65
2019-03-28T09:20:16.473Z,99056.77
2019-03-28T09:22:44.866Z,99054.20
2019-03-28T09:25:13.711Z,99050.69
2019-03-28T09:27:42.085Z,99059.31
2019-03-28T09:30:12.716Z,99056.66
2019-03-28T09:32:41.171Z,99048.00
2019-03-28T09:35:10.187Z,99055.83
2019-03-28T09:37:38.593Z,99052.38
2019-03-28T09:40:07.439Z,99043.17
2019-03-28T09:42:35.830Z,99054.41
2019-03-28T09:45:06.681Z,99044.55
2019-03-28T09:47:35.068Z,99042.25
2019-03-28T09:50:04.239Z,99051.19
2019-03-28T09:52:32.650Z,99046.90
2019-03-28T09:55:01.040Z,99044.66
2019-03-28T09:57:29.419Z,99051.42
2019-03-28T09:59:57.820Z,99042.70
2019-03-28T10:02:26.209Z,99037.86
2019-03-28T10:04:54.598Z,99046.64
2019-03-28T10:07:23.017Z,99040.91
2019-03-28T10:09:51.512Z,99036.92
2019-03-28T10:12:19.898Z,99035.18
2019-03-28T10:14:48.295Z,99035.98
2019-03-28T10:17:16.678Z,99046.22
2019-03-28T10:19:45.812Z,99043.53
2019-03-28T10:22:14.275Z,99046.14
2019-03-28T10:24:42.661Z,99043.14
2019-03-28T10:27:11.050Z,99041.00
2019-03-28T10:29:39.436Z,99030.11
2019-03-28T10:32:07.830Z,99037.08
2019-03-28T10:34:36.218Z,99037.03
2019-03-28T10:37:04.648Z,99035.89
2019-03-28T10:39:33.083Z,99034.69
2019-03-28T10:42:01.600Z,99022.02
2019-03-28T10:44:30.035Z,99026.87
2019-03-28T10:46:58.489Z,99028.36
2019-03-28T10:49:26.921Z,99031.14
2019-03-28T10:51:55.351Z,99027.60
2019-03-28T10:54:25.691Z,99025.84
2019-03-28T10:56:57.541Z,99018.35
2019-03-28T10:59:25.365Z,99021.13
2019-03-28T11:01:54.037Z,98993.39
2019-03-28T11:04:22.665Z,99025.14
2019-03-28T11:06:51.198Z,99028.52
2019-03-28T11:09:19.640Z,99026.64
2019-03-28T11:11:48.068Z,99020.85
2019-03-28T11:14:16.615Z,99024.70
2019-03-28T11:16:48.075Z,99021.06
2019-03-28T11:19:16.011Z,99025.41
2019-03-28T11:21:45.578Z,99029.84
2019-03-28T11:24:13.995Z,99029.11
2019-03-28T11:26:42.417Z,99024.77
2019-03-28T11:29:10.849Z,99027.27
2019-03-28T11:31:46.162Z,99021.42
2019-03-28T11:34:09.485Z,99027.69
2019-03-28T11:36:37.944Z,99028.72
2019-03-28T11:39:07.823Z,99028.81
2019-03-28T11:41:36.272Z,99034.38
2019-03-28T11:44:04.924Z,99032.18
2019-03-28T11:46:33.378Z,99025.77
2019-03-28T11:49:01.791Z,99026.95
2019-03-28T11:51:30.525Z,99025.54
2019-03-28T11:53:59.125Z,99028.13
2019-03-28T11:56:27.567Z,99020.73
2019-03-28T11:58:55.989Z,99026.16
2019-03-28T12:01:24.423Z,99025.01
2019-03-28T12:03:52.847Z,99021.75
2019-03-28T12:06:21.291Z,99020.91
2019-03-28T12:08:49.718Z,99025.30
2019-03-28T12:11:18.224Z,99017.87
2019-03-28T12:13:46.647Z,99019.81
2019-03-28T12:16:15.109Z,99017.09
2019-03-28T12:18:43.548Z,98994.31
2019-03-28T12:21:12.037Z,99014.75
2019-03-28T12:23:40.473Z,99008.30
2019-03-28T12:26:08.915Z,99009.55
2019-03-28T12:28:38.840Z,99011.53
2019-03-28T12:31:07.289Z,99002.75
2019-03-28T12:33:35.736Z,99007.02
2019-03-28T12:36:04.190Z,99001.69
2019-03-28T12:38:32.626Z,98998.97
2019-03-28T12:41:01.063Z,98995.98
2019-03-28T12:43:29.515Z,98999.19
2019-03-28T12:45:57.938Z,98995.79
2019-03-28T12:48:26.399Z,99001.86
2019-03-28T12:50:58.982Z,98997.53
2019-03-28T12:53:25.079Z,98993.13
2019-03-28T12:55:53.531Z,98996.50
2019-03-28T12:58:22.536Z,98991.34
2019-03-28T13:00:51.070Z,98992.22
2019-03-28T13:03:19.485Z,98998.48
2019-03-28T13:05:48.245Z,98996.93
2019-03-28T13:08:19.050Z,98999.05
2019-03-28T13:10:48.579Z,98996.97
2019-03-28T13:13:20.490Z,98995.59
2019-03-28T13:15:53.910Z,98994.30
2019-03-28T13:18:23.941Z,98988.73
2019-03-28T13:20:54.949Z,98991.54
2019-03-28T13:23:25.783Z,98991.88
2019-03-28T13:25:54.249Z,98988.81
2019-03-28T13:28:22.775Z,98978.41
2019-03-28T13:30:55.979Z,98992.05
2019-03-28T13:33:28.894Z,98991.08
2019-03-28T13:35:57.360Z,98987.42
2019-03-28T13:38:25.920Z,98989.89
2019-03-28T13:40:54.347Z,98985.58
2019-03-28T13:43:22.804Z,98979.66
2019-03-28T13:45:51.236Z,98982.55
2019-03-28T13:48:20.739Z,98978.27
2019-03-28T13:50:49.265Z,98976.47
2019-03-28T13:53:17.687Z,98974.39
2019-03-28T13:55:46.138Z,98973.14
2019-03-28T13:58:14.589Z,98975.30
2019-03-28T14:00:43.092Z,98972.48
2019-03-28T14:03:11.525Z,98967.27
2019-03-28T14:05:40.112Z,98966.30
2019-03-28T14:08:08.564Z,98967.95
2019-03-28T14:10:36.997Z,98967.85
2019-03-28T14:13:05.488Z,98963.49
2019-03-28T14:15:33.919Z,98969.55
2019-03-28T14:18:02.594Z,98972.17
2019-03-28T14:20:31.031Z,98967.41
2019-03-28T14:22:59.470Z,98966.98
2019-03-28T14:25:28.257Z,98965.27
2019-03-28T14:27:56.689Z,98962.72
2019-03-28T14:30:25.202Z,98966.13
2019-03-28T14:32:53.991Z,98967.47
2019-03-28T14:35:22.541Z,98960.17
2019-03-28T14:37:51.052Z,98963.63
2019-03-28T14:40:19.478Z,98937.73
2019-03-28T14:42:47.919Z,98959.58
2019-03-28T14:45:16.347Z,98958.82
2019-03-28T14:47:44.764Z,98958.41
2019-03-28T14:50:13.720Z,98959.86
2019-03-28T14:52:42.083Z,98963.64
2019-03-28T14:55:10.669Z,98962.26
2019-03-28T14:57:40.254Z,98965.63
2019-03-28T15:00:11.755Z,98959.58
2019-03-28T15:02:40.186Z,98967.22
2019-03-28T15:05:10.250Z,98941.53
2019-03-28T15:07:38.688Z,98969.85
2019-03-28T15:10:07.474Z,98966.34
2019-03-28T15:12:35.904Z,98963.27
2019-03-28T15:15:05.402Z,98961.47
2019-03-28T15:17:33.820Z,98962.81
2019-03-28T15:20:02.279Z,98959.53
2019-03-28T15:22:30.708Z,98961.41
2019-03-28T15:24:59.189Z,98959.73
2019-03-28T15:27:27.613Z,98958.02
2019-03-28T15:29:56.058Z,98962.30
2019-03-28T15:32:24.484Z,98941.83
2019-03-28T15:34:52.938Z,98957.68
2019-03-28T15:37:21.525Z,98955.09
2019-03-28T15:39:49.960Z,98954.66
2019-03-28T15:42:18.390Z,98929.81
2019-03-28T15:44:46.824Z,98954.66
2019-03-28T15:47:15.248Z,98950.34
2019-03-28T15:49:43.677Z,98949.44
2019-03-28T15:52:12.105Z,98954.17
2019-03-28T15:54:41.570Z,98950.38
2019-03-28T15:57:10.073Z,98952.19
2019-03-28T15:59:38.495Z,98924.73
2019-03-28T16:02:07.472Z,98947.05
2019-03-28T16:04:36.286Z,98945.37
2019-03-28T16:07:04.718Z,98949.74
2019-03-28T16:09:33.205Z,98951.92
2019-03-28T16:12:02.824Z,98954.97
2019-03-28T16:14:31.451Z,98956.77
2019-03-28T16:16:59.899Z,98949.96
2019-03-28T16:19:28.336Z,98955.49
2019-03-28T16:21:56.762Z,98942.73
2019-03-28T16:24:25.188Z,98959.45
2019-03-28T16:26:53.603Z,98961.14
2019-03-28T16:29:22.030Z,98956.52
2019-03-28T16:31:50.459Z,98967.22
2019-03-28T16:34:20.074Z,98971.52
2019-03-28T16:36:48.519Z,98974.48
2019-03-28T16:39:16.949Z,98968.42
2019-03-28T16:41:45.441Z,98974.02
2019-03-28T16:44:13.890Z,98976.20
2019-03-28T16:46:42.316Z,98975.80
2019-03-28T16:49:10.734Z,98974.52
2019-03-28T16:51:39.170Z,98981.41
2019-03-28T16:54:07.590Z,98976.64
2019-03-28T16:56:36.016Z,98976.66
2019-03-28T16:59:04.449Z,98978.06
2019-03-28T17:01:32.872Z,98979.79
2019-03-28T17:04:01.379Z,98977.22
2019-03-28T17:06:29.990Z,98980.23
2019-03-28T17:08:59.950Z,98987.17
2019-03-28T17:11:28.395Z,98982.83
2019-03-28T17:13:56.844Z,98989.31
2019-03-28T17:16:25.272Z,98985.05
2019-03-28T17:18:53.709Z,98985.52
2019-03-28T17:21:23.460Z,98979.93
2019-03-28T17:23:51.939Z,98985.95
2019-03-28T17:26:20.377Z,98983.80
2019-03-28T17:28:48.841Z,98986.02
2019-03-28T17:31:17.289Z,98983.83
2019-03-28T17:33:45.715Z,98985.14
2019-03-28T17:36:14.169Z,98987.31
2019-03-28T17:38:42.594Z,99000.25
2019-03-28T17:41:11.010Z,98999.86
2019-03-28T17:43:39.462Z,99001.19
2019-03-28T17:46:07.857Z,98996.91
2019-03-28T17:48:36.282Z,98999.49
2019-03-28T17:51:04.902Z,98999.49
2019-03-28T17:53:33.475Z,99002.47
2019-03-28T17:56:01.914Z,99002.06
2019-03-28T17:58:30.402Z,99001.65
2019-03-28T18:00:59.636Z,98978.92
2019-03-28T18:03:31.402Z,98996.92
2019-03-28T18:05:58.791Z,99004.66
2019-03-28T18:08:27.312Z,99001.19
2019-03-28T18:10:55.967Z,99006.83
2019-03-28T18:13:24.525Z,99005.53
2019-03-28T18:15:52.945Z,99007.27
2019-03-28T18:18:21.375Z,99002.52
2019-03-28T18:20:50.771Z,99006.00
2019-03-28T18:23:19.212Z,99013.36
2019-03-28T18:25:47.629Z,99013.38
2019-03-28T18:28:16.063Z,99014.71
2019-03-28T18:30:45.824Z,99012.59
2019-03-28T18:33:14.513Z,99014.34
2019-03-28T18:35:43.083Z,99014.38
2019-03-28T18:38:11.512Z,99020.41
2019-03-28T18:40:39.941Z,99027.30
2019-03-28T18:43:08.355Z,99024.75
2019-03-28T18:45:36.806Z,99028.20
2019-03-28T18:48:08.726Z,99030.78
2019-03-28T18:50:35.388Z,99029.95
2019-03-28T18:53:03.951Z,99030.38
2019-03-28T18:55:32.319Z,99028.25
2019-03-28T18:58:00.771Z,99032.56
2019-03-28T19:00:29.196Z,99033.39
2019-03-28T19:02:57.615Z,99035.13
2019-03-28T19:05:26.031Z,99007.70
2019-03-28T19:07:54.466Z,99043.73
2019-03-28T19:10:22.964Z,99044.19
2019-03-28T19:12:51.392Z,99045.89
2019-03-28T19:15:19.815Z,99052.79
2019-03-28T19:17:48.255Z,99044.59
2019-03-28T19:20:16.747Z,99054.94
2019-03-28T19:22:45.181Z,99053.25
2019-03-28T19:25:13.889Z,99051.09
2019-03-28T19:27:42.305Z,99057.55
2019-03-28T19:30:12.567Z,99057.16
2019-03-28T19:32:41.149Z,99058.48
2019-03-28T19:35:10.716Z,99053.30
2019-03-28T19:37:40.197Z,99057.63
2019-03-28T19:40:10.821Z,99058.05
2019-03-28T19:42:39.677Z,99055.48
2019-03-28T19:45:09.334Z,99050.32
2019-03-28T19:47:37.845Z,99049.50
2019-03-28T19:50:07.801Z,99044.76
2019-03-28T19:52:36.393Z,99046.48
2019-03-28T19:55:06.154Z,99049.98
2019-03-28T19:57:34.576Z,99047.41
2019-03-28T20:00:03.420Z,99044.40
2019-03-28T20:02:31.869Z,99044.86
2019-03-28T20:05:00.313Z,99048.30
2019-03-28T20:07:28.763Z,99052.63
2019-03-28T20:09:57.585Z,99052.66
2019-03-28T20:12:26.079Z,99050.08
2019-03-28T20:14:54.530Z,99056.53
2019-03-28T20:17:22.952Z,99053.97
2019-03-28T20:19:51.383Z,99053.55
2019-03-28T20:22:19.817Z,99048.84
2019-03-28T20:24:48.257Z,99052.74
2019-03-28T20:27:16.685Z,99049.75
2019-03-28T20:29:45.155Z,99057.51
2019-03-28T20:32:13.595Z,99058.79
2019-03-28T20:34:42.017Z,99056.22
2019-03-28T20:37:11.637Z,99052.74
2019-03-28T20:39:40.381Z,99056.20
2019-03-28T20:42:09.162Z,99060.47
2019-03-28T20:44:37.581Z,99060.09
2019-03-28T20:47:06.041Z,99061.39
2019-03-28T20:49:34.938Z,99063.09
2019-03-28T20:52:03.523Z,99063.55
2019-03-28T20:54:31.954Z,99063.14
2019-03-28T20:57:07.165Z,99068.73
2019-03-28T20:59:35.647Z,99072.63
2019-03-28T21:02:04.074Z,99077.81
2019-03-28T21:04:34.089Z,99083.83
2019-03-28T21:07:03.000Z,99087.30
2019-03-28T21:09:31.502Z,99086.46
2019-03-28T21:11:59.951Z,99083.44
2019-03-28T21:14:28.400Z,99085.17
2019-03-28T21:16:58.227Z,99083.42
2019-03-28T21:19:26.860Z,99082.98
2019-03-28T21:21:55.315Z,99077.42
2019-03-28T21:24:23.737Z,99082.98
2019-03-28T21:26:52.119Z,99085.57
2019-03-28T21:29:20.538Z,99064.97
2019-03-28T21:31:50.365Z,99078.27
2019-03-28T21:34:20.421Z,99078.71
2019-03-28T21:36:49.478Z,99076.13
2019-03-28T21:39:18.780Z,99081.30
2019-03-28T21:41:47.177Z,99086.86
2019-03-28T21:44:15.597Z,99081.30
2019-03-28T21:46:44.366Z,99079.56
2019-03-28T21:49:12.768Z,99059.83
2019-03-28T21:51:41.193Z,99063.31
2019-03-28T21:54:09.581Z,99081.34
2019-03-28T21:56:41.220Z,99083.92
2019-03-28T21:59:08.057Z,99069.28
2019-03-28T22:01:36.509Z,99072.32
2019-03-28T22:04:04.986Z,99082.22
2019-03-28T22:06:42.900Z,99073.63
2019-03-28T22:09:04.862Z,99079.65
2019-03-28T22:11:34.450Z,99074.94
2019-03-28T22:14:02.938Z,99073.64
2019-03-28T22:16:31.341Z,99067.62
2019-03-28T22:18:59.907Z,99070.21
2019-03-28T22:21:28.295Z,99067.64
2019-03-28T22:23:56.760Z,99063.35
2019-03-28T22:26:25.169Z,99073.23
2019-03-28T22:28:53.550Z,99064.20
2019-03-28T22:31:21.953Z,99063.80
2019-03-28T22:33:50.334Z,99060.80
2019-03-28T22:36:18.739Z,99065.98
2019-03-28T22:38:47.127Z,99061.70
2019-03-28T22:41:15.515Z,99056.55
2019-03-28T22:43:43.920Z,99058.26
2019-03-28T22:46:12.356Z,99059.55
2019-03-28T22:48:40.736Z,99059.99
2019-03-28T22:51:09.126Z,99055.69
2019-03-28T22:53:37.508Z,99056.57
2019-03-28T22:56:05.891Z,99059.17
2019-03-28T22:58:34.984Z,99057.05
2019-03-28T23:01:03.422Z,99057.05
2019-03-28T23:03:31.828Z,99062.63
2019-03-28T23:06:00.273Z,99058.35
2019-03-28T23:08:28.662Z,99054.89
2019-03-28T23:10:57.052Z,99054.91
2019-03-28T23:13:26.237Z,99057.48
2019-03-28T23:15:55.229Z,99056.64
2019-03-28T23:18:23.620Z,99060.06
2019-03-28T23:20:52.018Z,99058.38
2019-03-28T23:23:20.404Z,99056.22
2019-03-28T23:25:48.788Z,99061.81
2019-03-28T23:28:17.173Z,99062.67
2019-03-28T23:30:45.566Z,99060.09
2019-03-28T23:33:13.946Z,99063.11
2019-03-28T23:35:42.340Z,99055.81
2019-03-28T23:38:10.750Z,99057.11
2019-03-28T23:40:39.130Z,99060.09
2019-03-28T23:43:07.536Z,99045.05
2019-03-28T23:45:35.932Z,99057.56
2019-03-28T23:48:04.340Z,99047.64
2019-03-28T23:50:33.139Z,99048.55
2019-03-28T23:53:01.617Z,99045.52
2019-03-28T23:55:30.011Z,99041.20
2019-03-28T23:57:58.395Z,99048.95
